sensor_id;sensor_type;location;lat;lon;timestamp;pressure;altitude;pressure_sealevel;temperature;humidity
79285;BME280;68734;50.452;11.636;2023-03-23T00:01:56;94787.41;;;9.43;57.38
79285;BME280;68734;50.452;11.636;2023-03-23T00:04:24;94777.19;;;9.45;57.71
79285;BME280;68734;50.452;11.636;2023-03-23T00:06:51;94782.56;;;9.45;57.75
79285;BME280;68734;50.452;11.636;2023-03-23T00:09:16;94778.78;;;9.46;57.57
79285;BME280;68734;50.452;11.636;2023-03-23T00:11:42;94787.13;;;9.49;57.39
79285;BME280;68734;50.452;11.636;2023-03-23T00:14:10;94790.09;;;9.53;56.83
79285;BME280;68734;50.452;11.636;2023-03-23T00:16:40;94785.50;;;9.58;56.65
79285;BME280;68734;50.452;11.636;2023-03-23T00:19:12;94789.81;;;9.65;56.49
79285;BME280;68734;50.452;11.636;2023-03-23T00:21:39;94786.00;;;9.66;56.17
79285;BME280;68734;50.452;11.636;2023-03-23T00:24:15;94789.53;;;9.66;55.72
79285;BME280;68734;50.452;11.636;2023-03-23T00:26:43;94783.31;;;9.71;55.35
79285;BME280;68734;50.452;11.636;2023-03-23T00:29:13;94776.59;;;9.68;55.88
79285;BME280;68734;50.452;11.636;2023-03-23T00:31:40;94770.66;;;9.66;55.62
79285;BME280;68734;50.452;11.636;2023-03-23T00:34:06;94780.34;;;9.62;55.81
79285;BME280;68734;50.452;11.636;2023-03-23T00:36:33;94782.53;;;9.65;55.15
79285;BME280;68734;50.452;11.636;2023-03-23T00:39:01;94763.66;;;9.60;56.00
79285;BME280;68734;50.452;11.636;2023-03-23T00:41:28;94774.16;;;9.62;56.12
79285;BME280;68734;50.452;11.636;2023-03-23T00:43:57;94770.97;;;9.49;56.04
79285;BME280;68734;50.452;11.636;2023-03-23T00:46:29;94768.50;;;9.58;55.54
79285;BME280;68734;50.452;11.636;2023-03-23T00:48:55;94766.38;;;9.55;55.83
79285;BME280;68734;50.452;11.636;2023-03-23T00:51:25;94760.44;;;9.53;55.88
79285;BME280;68734;50.452;11.636;2023-03-23T00:53:53;94766.38;;;9.50;55.85
79285;BME280;68734;50.452;11.636;2023-03-23T00:56:18;94756.16;;;9.47;55.75
79285;BME280;68734;50.452;11.636;2023-03-23T00:58:43;94760.97;;;9.50;55.44
79285;BME280;68734;50.452;11.636;2023-03-23T01:01:11;94760.97;;;9.50;55.74
79285;BME280;68734;50.452;11.636;2023-03-23T01:03:37;94758.00;;;9.51;55.65
79285;BME280;68734;50.452;11.636;2023-03-23T01:06:10;94755.34;;;9.46;56.28
79285;BME280;68734;50.452;11.636;2023-03-23T01:08:39;94747.00;;;9.37;56.25
79285;BME280;68734;50.452;11.636;2023-03-23T01:11:14;94749.69;;;9.37;56.53
79285;BME280;68734;50.452;11.636;2023-03-23T01:13:43;94752.94;;;9.34;56.84
79285;BME280;68734;50.452;11.636;2023-03-23T01:16:10;94745.13;;;9.28;56.98
79285;BME280;68734;50.452;11.636;2023-03-23T01:18:36;94742.69;;;9.31;57.00
79285;BME280;68734;50.452;11.636;2023-03-23T01:21:10;94742.44;;;9.33;57.05
79285;BME280;68734;50.452;11.636;2023-03-23T01:23:38;94734.03;;;9.39;56.26
79285;BME280;68734;50.452;11.636;2023-03-23T01:26:06;94739.44;;;9.45;57.17
79285;BME280;68734;50.452;11.636;2023-03-23T01:28:33;94728.94;;;9.43;57.60
79285;BME280;68734;50.452;11.636;2023-03-23T01:31:07;94732.97;;;9.41;57.53
79285;BME280;68734;50.452;11.636;2023-03-23T01:33:33;94712.75;;;9.43;57.42
79285;BME280;68734;50.452;11.636;2023-03-23T01:36:06;94717.31;;;9.53;57.19
79285;BME280;68734;50.452;11.636;2023-03-23T01:38:33;94715.94;;;9.55;57.49
79285;BME280;68734;50.452;11.636;2023-03-23T01:41:00;94717.06;;;9.54;57.79
79285;BME280;68734;50.452;11.636;2023-03-23T01:43:25;94728.59;;;9.60;58.23
79285;BME280;68734;50.452;11.636;2023-03-23T01:45:51;94721.59;;;9.59;57.96
79285;BME280;68734;50.452;11.636;2023-03-23T01:48:29;94724.31;;;9.59;58.00
79285;BME280;68734;50.452;11.636;2023-03-23T01:51:02;94729.69;;;9.64;58.14
79285;BME280;68734;50.452;11.636;2023-03-23T01:53:35;94729.66;;;9.69;57.70
79285;BME280;68734;50.452;11.636;2023-03-23T01:56:08;94724.81;;;9.71;57.94
79285;BME280;68734;50.452;11.636;2023-03-23T01:58:39;94717.25;;;9.73;57.86
79285;BME280;68734;50.452;11.636;2023-03-23T02:01:08;94723.16;;;9.81;58.11
79285;BME280;68734;50.452;11.636;2023-03-23T02:03:42;94717.47;;;9.87;57.61
79285;BME280;68734;50.452;11.636;2023-03-23T02:06:09;94711.00;;;9.83;57.82
79285;BME280;68734;50.452;11.636;2023-03-23T02:08:35;94705.91;;;9.76;58.16
79285;BME280;68734;50.452;11.636;2023-03-23T02:11:11;94713.47;;;9.74;58.13
79285;BME280;68734;50.452;11.636;2023-03-23T02:13:37;94728.56;;;9.81;58.14
79285;BME280;68734;50.452;11.636;2023-03-23T02:16:26;94706.19;;;9.75;58.50
79285;BME280;68734;50.452;11.636;2023-03-23T02:32:49;94725.09;;;9.59;59.40
79285;BME280;68734;50.452;11.636;2023-03-23T02:35:23;94724.03;;;9.55;59.21
79285;BME280;68734;50.452;11.636;2023-03-23T02:38:00;94715.66;;;9.62;59.14
79285;BME280;68734;50.452;11.636;2023-03-23T02:40:35;94713.53;;;9.64;59.72
79285;BME280;68734;50.452;11.636;2023-03-23T02:43:02;94696.78;;;9.62;59.24
79285;BME280;68734;50.452;11.636;2023-03-23T02:45:30;94700.00;;;9.69;59.42
79285;BME280;68734;50.452;11.636;2023-03-23T02:47:59;94708.09;;;9.69;59.60
79285;BME280;68734;50.452;11.636;2023-03-23T02:50:27;94686.53;;;9.69;59.34
79285;BME280;68734;50.452;11.636;2023-03-23T02:52:56;94687.09;;;9.66;59.21
79285;BME280;68734;50.452;11.636;2023-03-23T02:55:23;94685.47;;;9.60;59.45
79285;BME280;68734;50.452;11.636;2023-03-23T02:57:52;94694.66;;;9.54;59.74
79285;BME280;68734;50.452;11.636;2023-03-23T03:00:18;94694.69;;;9.49;59.92
79285;BME280;68734;50.452;11.636;2023-03-23T03:02:55;94680.97;;;9.35;60.08
79285;BME280;68734;50.452;11.636;2023-03-23T03:10:53;94679.66;;;9.32;60.06
79285;BME280;68734;50.452;11.636;2023-03-23T03:16:03;94671.59;;;9.22;60.48
79285;BME280;68734;50.452;11.636;2023-03-23T03:21:09;94669.97;;;9.26;60.59
79285;BME280;68734;50.452;11.636;2023-03-23T03:23:39;94666.13;;;9.37;59.84
79285;BME280;68734;50.452;11.636;2023-03-23T03:26:07;94657.78;;;9.34;59.92
79285;BME280;68734;50.452;11.636;2023-03-23T03:28:35;94646.78;;;9.25;60.28
79285;BME280;68734;50.452;11.636;2023-03-23T03:31:03;94652.69;;;9.27;60.54
79285;BME280;68734;50.452;11.636;2023-03-23T03:33:30;94648.94;;;9.23;60.49
79285;BME280;68734;50.452;11.636;2023-03-23T03:36:01;94655.16;;;9.18;60.83
79285;BME280;68734;50.452;11.636;2023-03-23T03:38:28;94632.84;;;9.03;61.31
79285;BME280;68734;50.452;11.636;2023-03-23T03:40:54;94638.75;;;8.99;61.55
79285;BME280;68734;50.452;11.636;2023-03-23T03:43:20;94646.31;;;8.97;61.50
79285;BME280;68734;50.452;11.636;2023-03-23T03:45:46;94642.00;;;8.91;61.84
79285;BME280;68734;50.452;11.636;2023-03-23T03:48:11;94641.75;;;8.93;62.90
79285;BME280;68734;50.452;11.636;2023-03-23T03:50:37;94624.78;;;8.87;62.54
79285;BME280;68734;50.452;11.636;2023-03-23T03:53:04;94630.69;;;8.94;62.36
79285;BME280;68734;50.452;11.636;2023-03-23T03:55:33;94625.81;;;9.02;62.37
79285;BME280;68734;50.452;11.636;2023-03-23T03:58:01;94625.81;;;9.07;62.03
79285;BME280;68734;50.452;11.636;2023-03-23T04:00:26;94627.94;;;9.10;61.97
79285;BME280;68734;50.452;11.636;2023-03-23T04:02:52;94641.41;;;9.10;62.14
79285;BME280;68734;50.452;11.636;2023-03-23T04:05:25;94641.69;;;9.13;62.09
79285;BME280;68734;50.452;11.636;2023-03-23T04:07:54;94638.19;;;9.13;61.55
79285;BME280;68734;50.452;11.636;2023-03-23T04:10:26;94633.88;;;9.17;61.96
79285;BME280;68734;50.452;11.636;2023-03-23T04:12:52;94631.19;;;9.12;61.33
79285;BME280;68734;50.452;11.636;2023-03-23T04:15:18;94644.91;;;9.21;60.98
79285;BME280;68734;50.452;11.636;2023-03-23T04:17:44;94648.69;;;9.19;61.12
79285;BME280;68734;50.452;11.636;2023-03-23T04:20:13;94646.81;;;9.20;61.59
79285;BME280;68734;50.452;11.636;2023-03-23T04:22:46;94645.19;;;9.24;60.84
79285;BME280;68734;50.452;11.636;2023-03-23T04:25:15;94646.78;;;9.25;61.01
79285;BME280;68734;50.452;11.636;2023-03-23T04:27:43;94649.47;;;9.25;60.80
79285;BME280;68734;50.452;11.636;2023-03-23T04:30:10;94646.25;;;9.18;61.30
79285;BME280;68734;50.452;11.636;2023-03-23T04:32:38;94641.41;;;9.15;60.99
79285;BME280;68734;50.452;11.636;2023-03-23T04:35:11;94644.91;;;9.21;61.05
79285;BME280;68734;50.452;11.636;2023-03-23T04:37:37;94652.97;;;9.26;60.91
79285;BME280;68734;50.452;11.636;2023-03-23T04:40:04;94646.78;;;9.25;60.58
79285;BME280;68734;50.452;11.636;2023-03-23T04:42:36;94668.59;;;9.29;60.55
79285;BME280;68734;50.452;11.636;2023-03-23T04:45:04;94662.41;;;9.28;60.46
79285;BME280;68734;50.452;11.636;2023-03-23T04:47:34;94665.38;;;9.27;60.57
79285;BME280;68734;50.452;11.636;2023-03-23T04:50:10;94674.81;;;9.19;60.72
79285;BME280;68734;50.452;11.636;2023-03-23T04:52:37;94680.19;;;9.19;60.62
79285;BME280;68734;50.452;11.636;2023-03-23T04:55:05;94679.66;;;9.17;60.81
79285;BME280;68734;50.452;11.636;2023-03-23T04:57:31;94684.78;;;9.18;60.49
79285;BME280;68734;50.452;11.636;2023-03-23T04:59:59;94671.59;;;9.17;60.85
79285;BME280;68734;50.452;11.636;2023-03-23T05:02:25;94680.22;;;9.24;60.53
79285;BME280;68734;50.452;11.636;2023-03-23T05:04:56;94683.97;;;9.18;60.44
79285;BME280;68734;50.452;11.636;2023-03-23T05:07:24;94688.81;;;9.21;60.54
79285;BME280;68734;50.452;11.636;2023-03-23T05:09:50;94690.97;;;9.19;60.75
79285;BME280;68734;50.452;11.636;2023-03-23T05:12:15;94688.56;;;9.17;61.48
79285;BME280;68734;50.452;11.636;2023-03-23T05:14:41;94694.75;;;9.18;61.08
79285;BME280;68734;50.452;11.636;2023-03-23T05:17:07;94698.53;;;9.17;61.23
79285;BME280;68734;50.452;11.636;2023-03-23T05:19:34;94700.97;;;9.13;61.56
79285;BME280;68734;50.452;11.636;2023-03-23T05:21:59;94694.22;;;9.11;61.74
79285;BME280;68734;50.452;11.636;2023-03-23T05:24:32;94700.69;;;9.15;62.10
79285;BME280;68734;50.452;11.636;2023-03-23T05:27:00;94705.53;;;9.13;63.30
79285;BME280;68734;50.452;11.636;2023-03-23T05:29:27;94717.66;;;9.05;63.36
79285;BME280;68734;50.452;11.636;2023-03-23T05:31:58;94714.16;;;8.99;64.83
79285;BME280;68734;50.452;11.636;2023-03-23T05:34:27;94707.97;;;8.99;64.65
79285;BME280;68734;50.452;11.636;2023-03-23T05:36:54;94705.00;;;8.95;64.73
79285;BME280;68734;50.452;11.636;2023-03-23T05:39:21;94702.34;;;8.90;65.17
79285;BME280;68734;50.452;11.636;2023-03-23T05:41:46;94707.19;;;8.88;65.74
79285;BME280;68734;50.452;11.636;2023-03-23T05:44:14;94682.97;;;8.78;65.33
79285;BME280;68734;50.452;11.636;2023-03-23T05:46:40;94714.19;;;8.89;65.40
79285;BME280;68734;50.452;11.636;2023-03-23T05:49:05;94705.56;;;8.87;65.58
79285;BME280;68734;50.452;11.636;2023-03-23T05:51:31;94720.09;;;8.96;65.36
79285;BME280;68734;50.452;11.636;2023-03-23T05:53:56;94701.25;;;8.91;65.08
79285;BME280;68734;50.452;11.636;2023-03-23T05:56:22;94716.88;;;9.05;64.54
79285;BME280;68734;50.452;11.636;2023-03-23T05:58:50;94713.63;;;9.08;64.53
79285;BME280;68734;50.452;11.636;2023-03-23T06:01:18;94714.97;;;9.15;64.56
79285;BME280;68734;50.452;11.636;2023-03-23T06:03:43;94726.00;;;9.24;64.86
79285;BME280;68734;50.452;11.636;2023-03-23T06:06:14;94718.44;;;9.31;63.80
79285;BME280;68734;50.452;11.636;2023-03-23T06:08:40;94709.50;;;9.51;62.88
79285;BME280;68734;50.452;11.636;2023-03-23T06:11:08;94725.38;;;9.68;62.88
79285;BME280;68734;50.452;11.636;2023-03-23T06:13:33;94725.56;;;9.82;62.94
79285;BME280;68734;50.452;11.636;2023-03-23T06:15:59;94730.13;;;9.92;62.01
79285;BME280;68734;50.452;11.636;2023-03-23T06:18:25;94727.94;;;9.94;62.56
79285;BME280;68734;50.452;11.636;2023-03-23T06:20:51;94720.94;;;9.93;62.81
79285;BME280;68734;50.452;11.636;2023-03-23T06:23:18;94735.50;;;9.92;62.26
79285;BME280;68734;50.452;11.636;2023-03-23T06:25:45;94726.91;;;9.85;62.29
79285;BME280;68734;50.452;11.636;2023-03-23T06:28:11;94733.91;;;9.86;61.72
79285;BME280;68734;50.452;11.636;2023-03-23T06:30:42;94731.22;;;9.86;62.69
79285;BME280;68734;50.452;11.636;2023-03-23T06:33:11;94741.47;;;9.84;62.47
79285;BME280;68734;50.452;11.636;2023-03-23T06:35:36;94745.28;;;9.83;62.30
79285;BME280;68734;50.452;11.636;2023-03-23T06:38:02;94744.19;;;9.78;62.63
79285;BME280;68734;50.452;11.636;2023-03-23T06:40:28;94751.72;;;9.82;62.85
79285;BME280;68734;50.452;11.636;2023-03-23T06:42:54;94743.66;;;9.76;63.07
79285;BME280;68734;50.452;11.636;2023-03-23T06:45:24;94740.94;;;9.82;62.55
79285;BME280;68734;50.452;11.636;2023-03-23T06:47:49;94738.25;;;9.87;62.38
79285;BME280;68734;50.452;11.636;2023-03-23T06:50:15;94740.38;;;9.90;62.28
79285;BME280;68734;50.452;11.636;2023-03-23T06:52:49;94748.19;;;9.96;61.63
79285;BME280;68734;50.452;11.636;2023-03-23T06:55:15;94750.59;;;9.98;62.17
79285;BME280;68734;50.452;11.636;2023-03-23T06:57:42;94755.97;;;9.98;62.45
79285;BME280;68734;50.452;11.636;2023-03-23T07:00:09;94758.44;;;9.94;63.65
79285;BME280;68734;50.452;11.636;2023-03-23T07:02:38;94757.09;;;9.92;64.30
79285;BME280;68734;50.452;11.636;2023-03-23T07:05:03;94764.66;;;9.90;65.46
79285;BME280;68734;50.452;11.636;2023-03-23T07:07:29;94766.81;;;9.88;66.26
79285;BME280;68734;50.452;11.636;2023-03-23T07:09:55;94777.59;;;9.88;68.94
79285;BME280;68734;50.452;11.636;2023-03-23T07:12:21;94785.41;;;9.89;69.27
79285;BME280;68734;50.452;11.636;2023-03-23T07:14:50;94779.22;;;9.89;71.20
79285;BME280;68734;50.452;11.636;2023-03-23T07:17:15;94787.59;;;9.87;70.39
79285;BME280;68734;50.452;11.636;2023-03-23T07:19:40;94792.72;;;9.84;71.52
79285;BME280;68734;50.452;11.636;2023-03-23T07:22:07;94794.88;;;9.82;71.05
79285;BME280;68734;50.452;11.636;2023-03-23T07:24:35;94790.56;;;9.86;72.94
79285;BME280;68734;50.452;11.636;2023-03-23T07:27:01;94784.63;;;9.89;73.03
79285;BME280;68734;50.452;11.636;2023-03-23T07:29:26;94793.25;;;9.91;73.46
79285;BME280;68734;50.452;11.636;2023-03-23T07:31:52;94784.66;;;9.78;73.14
79285;BME280;68734;50.452;11.636;2023-03-23T07:34:18;94773.63;;;9.65;73.85
79285;BME280;68734;50.452;11.636;2023-03-23T07:36:44;94782.00;;;9.68;73.99
79285;BME280;68734;50.452;11.636;2023-03-23T07:39:11;94787.38;;;9.68;73.63
79285;BME280;68734;50.452;11.636;2023-03-23T07:41:39;94791.69;;;9.69;73.07
79285;BME280;68734;50.452;11.636;2023-03-23T07:44:05;94798.66;;;9.81;73.61
79285;BME280;68734;50.452;11.636;2023-03-23T07:46:31;94803.25;;;9.90;73.82
79285;BME280;68734;50.452;11.636;2023-03-23T07:48:57;94806.19;;;9.89;74.27
79285;BME280;68734;50.452;11.636;2023-03-23T07:51:23;94802.97;;;9.87;73.90
79285;BME280;68734;50.452;11.636;2023-03-23T07:53:49;94801.59;;;9.84;73.91
79285;BME280;68734;50.452;11.636;2023-03-23T07:56:15;94795.41;;;9.89;74.38
79285;BME280;68734;50.452;11.636;2023-03-23T07:58:44;94804.03;;;9.86;74.31
79285;BME280;68734;50.452;11.636;2023-03-23T08:01:10;94804.56;;;9.88;74.86
79285;BME280;68734;50.452;11.636;2023-03-23T08:03:36;94817.00;;;9.78;75.18
79285;BME280;68734;50.452;11.636;2023-03-23T08:06:05;94804.06;;;9.81;74.78
79285;BME280;68734;50.452;11.636;2023-03-23T08:08:31;94817.50;;;9.96;74.96
79285;BME280;68734;50.452;11.636;2023-03-23T08:10:57;94816.44;;;9.92;74.68
79285;BME280;68734;50.452;11.636;2023-03-23T08:13:23;94821.81;;;9.92;74.07
79285;BME280;68734;50.452;11.636;2023-03-23T08:15:49;94817.00;;;9.84;75.07
79285;BME280;68734;50.452;11.636;2023-03-23T08:18:15;94808.09;;;9.78;75.60
79285;BME280;68734;50.452;11.636;2023-03-23T08:20:44;94812.19;;;9.70;74.99
79285;BME280;68734;50.452;11.636;2023-03-23T08:23:12;94819.72;;;9.63;74.89
79285;BME280;68734;50.452;11.636;2023-03-23T08:25:38;94809.50;;;9.55;75.94
79285;BME280;68734;50.452;11.636;2023-03-23T08:28:05;94812.19;;;9.55;76.24
79285;BME280;68734;50.452;11.636;2023-03-23T08:30:34;94809.22;;;9.51;76.15
79285;BME280;68734;50.452;11.636;2023-03-23T08:33:01;94822.19;;;9.54;74.88
79285;BME280;68734;50.452;11.636;2023-03-23T08:35:28;94822.44;;;9.48;77.23
79285;BME280;68734;50.452;11.636;2023-03-23T08:37:55;94831.03;;;9.60;76.25
79285;BME280;68734;50.452;11.636;2023-03-23T08:40:23;94831.59;;;9.72;76.27
79285;BME280;68734;50.452;11.636;2023-03-23T08:42:50;94816.72;;;9.85;75.66
79285;BME280;68734;50.452;11.636;2023-03-23T08:45:19;94814.19;;;10.19;74.94
79285;BME280;68734;50.452;11.636;2023-03-23T08:47:45;94826.22;;;10.53;73.19
79285;BME280;68734;50.452;11.636;2023-03-23T08:50:14;94828.28;;;10.76;72.53
79285;BME280;68734;50.452;11.636;2023-03-23T08:52:41;94822.50;;;10.88;71.92
79285;BME280;68734;50.452;11.636;2023-03-23T08:55:07;94820.63;;;10.89;72.14
79285;BME280;68734;50.452;11.636;2023-03-23T08:57:34;94821.19;;;10.86;71.69
79285;BME280;68734;50.452;11.636;2023-03-23T09:00:02;94822.88;;;10.71;72.73
79285;BME280;68734;50.452;11.636;2023-03-23T09:02:39;94818.34;;;10.62;72.64
79285;BME280;68734;50.452;11.636;2023-03-23T09:05:05;94820.19;;;10.66;72.32
79285;BME280;68734;50.452;11.636;2023-03-23T09:07:32;94808.00;;;10.74;72.62
79285;BME280;68734;50.452;11.636;2023-03-23T09:09:57;94815.81;;;10.81;72.71
79285;BME280;68734;50.452;11.636;2023-03-23T09:12:23;94803.50;;;10.59;71.92
79285;BME280;68734;50.452;11.636;2023-03-23T09:14:49;94813.59;;;10.43;72.75
79285;BME280;68734;50.452;11.636;2023-03-23T09:17:14;94809.31;;;10.32;73.54
79285;BME280;68734;50.452;11.636;2023-03-23T09:19:40;94806.63;;;10.22;74.04
79285;BME280;68734;50.452;11.636;2023-03-23T09:22:06;94820.09;;;10.27;74.61
79285;BME280;68734;50.452;11.636;2023-03-23T09:24:33;94819.63;;;10.04;75.67
79285;BME280;68734;50.452;11.636;2023-03-23T09:26:58;94829.91;;;9.97;76.24
79285;BME280;68734;50.452;11.636;2023-03-23T09:29:25;94832.03;;;10.10;77.06
79285;BME280;68734;50.452;11.636;2023-03-23T09:31:55;94836.81;;;10.34;76.41
79285;BME280;68734;50.452;11.636;2023-03-23T09:34:21;94837.88;;;10.43;76.92
79285;BME280;68734;50.452;11.636;2023-03-23T09:36:47;94830.84;;;10.47;76.42
79285;BME280;68734;50.452;11.636;2023-03-23T09:39:16;94834.06;;;10.54;76.99
79285;BME280;68734;50.452;11.636;2023-03-23T09:47:25;94841.56;;;10.63;75.74
79285;BME280;68734;50.452;11.636;2023-03-23T09:50:00;94847.63;;;10.39;77.01
79285;BME280;68734;50.452;11.636;2023-03-23T09:52:39;94849.25;;;10.30;75.66
79285;BME280;68734;50.452;11.636;2023-03-23T09:55:12;94846.31;;;10.16;76.70
79285;BME280;68734;50.452;11.636;2023-03-23T09:57:55;94853.59;;;10.31;76.50
79285;BME280;68734;50.452;11.636;2023-03-23T10:00:30;94835.75;;;10.30;75.90
79285;BME280;68734;50.452;11.636;2023-03-23T10:05:53;94836.78;;;10.49;76.00
79285;BME280;68734;50.452;11.636;2023-03-23T10:13:44;94847.16;;;11.21;73.43
79285;BME280;68734;50.452;11.636;2023-03-23T10:16:19;94846.50;;;11.34;74.08
79285;BME280;68734;50.452;11.636;2023-03-23T10:21:33;94838.91;;;11.36;72.37
79285;BME280;68734;50.452;11.636;2023-03-23T10:24:03;94829.22;;;11.30;72.02
79285;BME280;68734;50.452;11.636;2023-03-23T10:29:07;94835.28;;;11.17;72.91
79285;BME280;68734;50.452;11.636;2023-03-23T10:31:39;94845.16;;;11.37;72.31
79285;BME280;68734;50.452;11.636;2023-03-23T10:34:13;94851.19;;;11.58;73.67
79285;BME280;68734;50.452;11.636;2023-03-23T10:37:03;94860.31;;;11.67;72.27
79285;BME280;68734;50.452;11.636;2023-03-23T10:39:58;94859.19;;;11.68;72.45
79285;BME280;68734;50.452;11.636;2023-03-23T10:42:26;94855.03;;;11.52;72.93
79285;BME280;68734;50.452;11.636;2023-03-23T10:44:53;94866.69;;;11.47;72.87
79285;BME280;68734;50.452;11.636;2023-03-23T10:47:20;94864.34;;;11.35;74.04
79285;BME280;68734;50.452;11.636;2023-03-23T10:49:55;94854.91;;;11.33;73.37
79285;BME280;68734;50.452;11.636;2023-03-23T10:52:35;94866.94;;;11.51;73.83
79285;BME280;68734;50.452;11.636;2023-03-23T10:55:07;94865.47;;;11.29;74.16
79285;BME280;68734;50.452;11.636;2023-03-23T10:57:35;94857.13;;;11.26;74.43
79285;BME280;68734;50.452;11.636;2023-03-23T11:00:18;94855.22;;;11.26;75.05
79285;BME280;68734;50.452;11.636;2023-03-23T11:05:31;94864.63;;;10.94;74.70
79285;BME280;68734;50.452;11.636;2023-03-23T11:07:59;94845.69;;;11.00;73.79
79285;BME280;68734;50.452;11.636;2023-03-23T11:10:36;94853.03;;;11.28;73.11
79285;BME280;68734;50.452;11.636;2023-03-23T11:13:03;94858.22;;;11.25;73.08
79285;BME280;68734;50.452;11.636;2023-03-23T11:15:40;94848.84;;;11.12;73.26
79285;BME280;68734;50.452;11.636;2023-03-23T11:18:11;94834.41;;;11.27;73.75
79285;BME280;68734;50.452;11.636;2023-03-23T11:20:42;94846.75;;;11.38;74.34
79285;BME280;68734;50.452;11.636;2023-03-23T11:23:20;94853.09;;;11.57;71.22
79285;BME280;68734;50.452;11.636;2023-03-23T11:31:43;94863.91;;;11.18;73.16
79285;BME280;68734;50.452;11.636;2023-03-23T11:34:16;94863.91;;;11.18;74.06
79285;BME280;68734;50.452;11.636;2023-03-23T11:36:47;94854.81;;;11.09;74.23
79285;BME280;68734;50.452;11.636;2023-03-23T11:39:31;94843.16;;;11.48;73.52
79285;BME280;68734;50.452;11.636;2023-03-23T11:42:02;94855.59;;;11.49;71.32
79285;BME280;68734;50.452;11.636;2023-03-23T11:44:41;94849.00;;;11.60;71.78
79285;BME280;68734;50.452;11.636;2023-03-23T11:47:30;94840.94;;;11.84;71.57
79285;BME280;68734;50.452;11.636;2023-03-23T11:50:16;94818.47;;;11.89;71.84
79285;BME280;68734;50.452;11.636;2023-03-23T11:55:50;94836.84;;;12.40;70.84
79285;BME280;68734;50.452;11.636;2023-03-23T11:58:21;94842.44;;;12.25;69.78
79285;BME280;68734;50.452;11.636;2023-03-23T12:03:20;94834.38;;;12.20;70.26
79285;BME280;68734;50.452;11.636;2023-03-23T12:14:30;94836.34;;;11.85;70.95
79285;BME280;68734;50.452;11.636;2023-03-23T12:26:34;94850.03;;;10.95;72.63
79285;BME280;68734;50.452;11.636;2023-03-23T12:40:47;94857.28;;;12.03;68.97
79285;BME280;68734;50.452;11.636;2023-03-23T12:48:35;94837.22;;;12.52;68.20
79285;BME280;68734;50.452;11.636;2023-03-23T12:51:20;94844.78;;;12.55;67.38
79285;BME280;68734;50.452;11.636;2023-03-23T12:54:01;94839.91;;;12.33;67.80
79285;BME280;68734;50.452;11.636;2023-03-23T12:56:37;94838.75;;;12.15;69.67
79285;BME280;68734;50.452;11.636;2023-03-23T12:59:45;94840.78;;;12.29;69.30
79285;BME280;68734;50.452;11.636;2023-03-23T13:02:30;94849.09;;;12.08;69.70
79285;BME280;68734;50.452;11.636;2023-03-23T13:05:06;94840.41;;;11.82;70.51
79285;BME280;68734;50.452;11.636;2023-03-23T13:07:47;94847.75;;;11.76;71.60
79285;BME280;68734;50.452;11.636;2023-03-23T13:10:22;94837.31;;;11.35;72.30
79285;BME280;68734;50.452;11.636;2023-03-23T13:12:52;94833.13;;;11.19;74.21
79285;BME280;68734;50.452;11.636;2023-03-23T13:18:10;94836.84;;;11.57;73.24
79285;BME280;68734;50.452;11.636;2023-03-23T13:23:31;94829.03;;;11.85;71.67
79285;BME280;68734;50.452;11.636;2023-03-23T13:26:01;94828.78;;;11.82;71.26
79285;BME280;68734;50.452;11.636;2023-03-23T13:28:31;94809.63;;;11.49;70.58
79285;BME280;68734;50.452;11.636;2023-03-23T13:33:32;94819.25;;;11.31;70.95
79285;BME280;68734;50.452;11.636;2023-03-23T13:36:13;94832.00;;;11.25;71.78
79285;BME280;68734;50.452;11.636;2023-03-23T13:38:45;94830.25;;;11.00;70.98
79285;BME280;68734;50.452;11.636;2023-03-23T13:41:17;94818.72;;;10.94;72.06
79285;BME280;68734;50.452;11.636;2023-03-23T13:43:43;94815.56;;;10.77;72.80
79285;BME280;68734;50.452;11.636;2023-03-23T13:54:18;94814.31;;;11.04;73.16
79285;BME280;68734;50.452;11.636;2023-03-23T13:57:02;94808.38;;;11.02;72.64
79285;BME280;68734;50.452;11.636;2023-03-23T13:59:46;94804.06;;;11.01;72.48
79285;BME280;68734;50.452;11.636;2023-03-23T14:02:41;94819.72;;;11.04;72.79
79285;BME280;68734;50.452;11.636;2023-03-23T14:08:00;94806.34;;;10.83;73.12
79285;BME280;68734;50.452;11.636;2023-03-23T14:10:44;94805.50;;;10.88;73.67
79285;BME280;68734;50.452;11.636;2023-03-23T14:16:28;94797.72;;;10.76;73.54
79285;BME280;68734;50.452;11.636;2023-03-23T14:19:02;94794.28;;;10.65;74.91
79285;BME280;68734;50.452;11.636;2023-03-23T14:24:00;94788.25;;;10.29;75.99
79285;BME280;68734;50.452;11.636;2023-03-23T14:26:26;94794.16;;;10.36;77.15
79285;BME280;68734;50.452;11.636;2023-03-23T14:28:53;94800.94;;;10.23;75.56
79285;BME280;68734;50.452;11.636;2023-03-23T14:31:25;94788.25;;;10.24;76.26
79285;BME280;68734;50.452;11.636;2023-03-23T14:33:55;94801.25;;;10.16;75.70
79285;BME280;68734;50.452;11.636;2023-03-23T14:36:30;94796.66;;;10.17;76.41
79285;BME280;68734;50.452;11.636;2023-03-23T14:41:39;94802.59;;;10.14;75.76
79285;BME280;68734;50.452;11.636;2023-03-23T14:44:08;94797.50;;;10.12;74.82
79285;BME280;68734;50.452;11.636;2023-03-23T14:46:39;94787.50;;;10.08;75.22
79285;BME280;68734;50.452;11.636;2023-03-23T14:49:06;94808.03;;;10.09;74.64
79285;BME280;68734;50.452;11.636;2023-03-23T14:51:34;94808.81;;;10.09;74.88
79285;BME280;68734;50.452;11.636;2023-03-23T14:54:07;94796.44;;;10.08;74.45
79285;BME280;68734;50.452;11.636;2023-03-23T14:56:35;94811.53;;;10.09;74.77
79285;BME280;68734;50.452;11.636;2023-03-23T14:59:05;94808.28;;;10.07;74.10
79285;BME280;68734;50.452;11.636;2023-03-23T15:01:34;94816.91;;;10.09;74.92
79285;BME280;68734;50.452;11.636;2023-03-23T15:04:17;94819.09;;;10.07;74.23
79285;BME280;68734;50.452;11.636;2023-03-23T15:06:49;94823.41;;;10.03;74.34
79285;BME280;68734;50.452;11.636;2023-03-23T15:09:20;94818.28;;;10.02;74.60
79285;BME280;68734;50.452;11.636;2023-03-23T15:11:53;94822.34;;;9.99;74.67